createdAt,value
2022-12-26T00:02:08.343Z,3.46
2022-12-26T00:04:51.708Z,3.34
2022-12-26T00:07:25.034Z,3.45
2022-12-26T00:09:56.948Z,3.46
2022-12-26T00:12:28.826Z,3.58
2022-12-26T00:15:00.688Z,3.39
2022-12-26T00:17:32.621Z,3.33
2022-12-26T00:20:05.124Z,3.37
2022-12-26T00:22:37.049Z,3.39
2022-12-26T00:25:09.132Z,3.16
2022-12-26T00:27:41.047Z,2.98
2022-12-26T00:30:13.171Z,3.48
2022-12-26T00:32:45.425Z,3.43
2022-12-26T00:35:17.505Z,3.30
2022-12-26T00:37:49.505Z,3.47
2022-12-26T00:40:21.489Z,2.82
2022-12-26T00:42:53.439Z,3.32
2022-12-26T00:45:25.408Z,3.56
2022-12-26T00:47:57.482Z,3.37
2022-12-26T00:50:34.404Z,3.44
2022-12-26T00:53:07.022Z,3.32
2022-12-26T00:55:39.210Z,3.49
2022-12-26T00:58:11.267Z,3.20
2022-12-26T01:00:43.378Z,3.42
2022-12-26T01:03:16.007Z,3.66
2022-12-26T01:05:51.955Z,3.71
2022-12-26T01:08:24.974Z,3.58
2022-12-26T01:10:57.577Z,3.47
2022-12-26T01:13:29.515Z,3.45
2022-12-26T01:16:01.694Z,3.58
2022-12-26T01:18:34.587Z,3.67
2022-12-26T01:21:10.889Z,3.71
2022-12-26T01:23:43.896Z,3.61
2022-12-26T01:26:20.116Z,3.50
2022-12-26T01:28:53.080Z,3.57
2022-12-26T01:31:25.064Z,3.58
2022-12-26T01:33:57.106Z,3.40
2022-12-26T01:36:29.209Z,3.72
2022-12-26T01:39:01.342Z,3.68
2022-12-26T01:41:33.496Z,3.73
2022-12-26T01:44:27.012Z,3.82
2022-12-26T01:46:59.048Z,3.81
2022-12-26T01:49:41.205Z,3.62
2022-12-26T01:52:20.429Z,3.74
2022-12-26T01:54:55.173Z,3.84
2022-12-26T01:57:40.299Z,3.82
2022-12-26T02:00:13.271Z,3.89
2022-12-26T02:03:04.150Z,3.94
2022-12-26T02:05:36.587Z,3.66
2022-12-26T02:08:24.466Z,3.76
2022-12-26T02:11:08.323Z,3.86
2022-12-26T02:13:41.780Z,3.93
2022-12-26T02:16:17.010Z,3.90
2022-12-26T02:18:49.048Z,3.57
2022-12-26T02:21:23.783Z,3.91
2022-12-26T02:24:01.707Z,3.90
2022-12-26T02:26:36.535Z,3.90
2022-12-26T02:29:08.440Z,3.94
2022-12-26T02:31:49.234Z,3.93
2022-12-26T02:34:21.070Z,3.91
2022-12-26T02:37:23.612Z,3.95
2022-12-26T02:40:01.862Z,3.88
2022-12-26T02:42:52.410Z,3.90
2022-12-26T02:46:02.097Z,3.86
2022-12-26T02:48:42.901Z,3.84
2022-12-26T02:51:33.346Z,3.79
2022-12-26T02:54:45.904Z,3.73
2022-12-26T02:57:41.246Z,3.65
2022-12-26T03:00:37.925Z,3.56
2022-12-26T03:03:36.187Z,3.65
2022-12-26T03:06:38.467Z,3.68
2022-12-26T03:09:40.800Z,3.52
2022-12-26T03:12:37.175Z,3.61
2022-12-26T03:15:13.841Z,3.43
2022-12-26T03:17:54.886Z,3.62
2022-12-26T03:20:35.298Z,3.65
2022-12-26T03:23:12.238Z,3.58
2022-12-26T03:26:10.739Z,3.77
2022-12-26T03:28:43.725Z,3.75
2022-12-26T03:31:17.000Z,3.54
2022-12-26T03:34:07.288Z,3.66
2022-12-26T03:37:03.866Z,3.63
2022-12-26T03:40:05.658Z,3.67
2022-12-26T03:43:19.341Z,3.75
2022-12-26T03:46:21.963Z,3.71
2022-12-26T03:49:27.287Z,3.75
2022-12-26T03:52:57.226Z,3.73
2022-12-26T03:55:52.280Z,3.70
2022-12-26T03:58:48.920Z,3.42
2022-12-26T04:01:48.697Z,3.64
2022-12-26T04:04:42.027Z,3.49
2022-12-26T04:07:56.782Z,3.66
2022-12-26T04:10:56.244Z,3.61
2022-12-26T04:14:11.451Z,3.64
2022-12-26T04:17:24.382Z,3.60
2022-12-26T04:20:09.625Z,3.63
2022-12-26T04:23:11.039Z,3.68
2022-12-26T04:26:09.355Z,3.64
2022-12-26T04:29:00.148Z,3.58
2022-12-26T04:31:55.798Z,3.63
2022-12-26T04:34:57.877Z,3.65
2022-12-26T04:37:51.500Z,3.60
2022-12-26T04:40:48.152Z,3.68
2022-12-26T04:43:50.391Z,3.56
2022-12-26T04:46:26.392Z,3.68
2022-12-26T04:49:18.875Z,3.67
2022-12-26T04:51:51.631Z,3.72
2022-12-26T04:54:24.050Z,3.28
2022-12-26T04:56:56.057Z,3.56
2022-12-26T04:59:28.808Z,3.59
2022-12-26T05:02:19.644Z,3.53
2022-12-26T05:05:10.306Z,3.64
2022-12-26T05:08:01.591Z,3.58
2022-12-26T05:10:33.685Z,3.57
2022-12-26T05:13:05.673Z,3.62
2022-12-26T05:15:57.682Z,3.63
2022-12-26T05:18:48.092Z,3.43
2022-12-26T05:21:38.833Z,3.33
2022-12-26T05:24:29.839Z,3.46
2022-12-26T05:27:20.817Z,3.52
2022-12-26T05:29:53.082Z,3.63
2022-12-26T05:32:43.680Z,3.65
2022-12-26T05:35:15.655Z,3.63
2022-12-26T05:37:47.653Z,3.52
2022-12-26T05:40:19.655Z,3.69
2022-12-26T05:42:51.714Z,3.51
2022-12-26T05:45:23.810Z,3.66
2022-12-26T05:48:00.755Z,3.53
2022-12-26T05:50:32.714Z,3.78
2022-12-26T05:53:04.878Z,3.85
2022-12-26T05:55:36.998Z,3.76
2022-12-26T05:58:09.215Z,3.58
2022-12-26T06:00:41.181Z,3.67
2022-12-26T06:03:13.427Z,3.78
2022-12-26T06:05:45.515Z,3.73
2022-12-26T06:08:17.441Z,3.66
2022-12-26T06:10:49.533Z,3.60
2022-12-26T06:13:21.689Z,3.68
2022-12-26T06:15:53.744Z,3.72
2022-12-26T06:18:26.200Z,3.75
2022-12-26T06:20:58.152Z,3.75
2022-12-26T06:23:30.144Z,3.73
2022-12-26T06:26:02.692Z,3.84
2022-12-26T06:28:35.472Z,3.49
2022-12-26T06:31:16.575Z,3.72
2022-12-26T06:33:55.485Z,3.80
2022-12-26T06:36:29.056Z,3.70
2022-12-26T06:39:01.564Z,3.43
2022-12-26T06:41:33.499Z,3.70
2022-12-26T06:44:05.698Z,3.56
2022-12-26T06:46:37.849Z,3.73
2022-12-26T06:49:09.832Z,3.75
2022-12-26T06:51:41.869Z,3.80
2022-12-26T06:54:13.848Z,3.63
2022-12-26T06:56:45.796Z,3.64
2022-12-26T06:59:18.233Z,3.67
2022-12-26T07:01:50.355Z,3.60
2022-12-26T07:04:22.464Z,3.85
2022-12-26T07:06:54.448Z,3.75
2022-12-26T07:09:33.185Z,3.81
2022-12-26T07:12:06.582Z,3.71
2022-12-26T07:14:38.588Z,3.86
2022-12-26T07:17:11.044Z,3.82
2022-12-26T07:19:42.982Z,3.61
2022-12-26T07:22:14.939Z,3.49
2022-12-26T07:24:46.857Z,3.88
2022-12-26T07:27:18.892Z,3.77
2022-12-26T07:29:51.051Z,3.80
2022-12-26T07:32:23.115Z,3.33
2022-12-26T07:34:55.101Z,3.82
2022-12-26T07:37:27.126Z,3.85
2022-12-26T07:39:59.558Z,3.75
2022-12-26T07:42:31.655Z,3.81
2022-12-26T07:45:03.968Z,3.91
2022-12-26T07:47:35.967Z,3.76
2022-12-26T07:50:08.427Z,3.99
2022-12-26T07:52:40.395Z,3.99
2022-12-26T07:55:12.333Z,4.09
2022-12-26T07:57:48.863Z,3.98
2022-12-26T08:00:23.130Z,4.08
2022-12-26T08:02:57.569Z,4.14
2022-12-26T08:05:31.727Z,3.89
2022-12-26T08:08:04.208Z,3.93
2022-12-26T08:10:36.276Z,4.17
2022-12-26T08:13:08.485Z,4.30
2022-12-26T08:15:41.479Z,4.23
2022-12-26T08:18:13.397Z,4.07
2022-12-26T08:20:45.400Z,4.17
2022-12-26T08:23:17.852Z,4.28
2022-12-26T08:25:49.819Z,4.07
2022-12-26T08:28:21.865Z,4.22
2022-12-26T08:30:53.787Z,4.29
2022-12-26T08:33:26.605Z,4.44
2022-12-26T08:36:06.337Z,4.29
2022-12-26T08:38:38.885Z,4.48
2022-12-26T08:41:11.136Z,4.49
2022-12-26T08:44:24.908Z,4.47
2022-12-26T08:46:35.929Z,4.36
2022-12-26T08:49:07.945Z,4.43
2022-12-26T08:51:40.196Z,4.31
2022-12-26T08:54:12.125Z,4.68
2022-12-26T08:56:44.269Z,4.81
2022-12-26T08:59:16.536Z,4.81
2022-12-26T09:01:48.866Z,4.81
2022-12-26T09:04:20.936Z,4.75
2022-12-26T09:06:52.969Z,4.87
2022-12-26T09:09:24.906Z,4.93
2022-12-26T09:11:56.865Z,4.98
2022-12-26T09:14:28.833Z,4.64
2022-12-26T09:17:00.834Z,5.05
2022-12-26T09:19:32.860Z,4.50
2022-12-26T09:22:23.721Z,5.00
2022-12-26T09:24:55.486Z,5.09
2022-12-26T09:27:29.323Z,5.06
2022-12-26T09:30:01.488Z,4.85
2022-12-26T09:32:35.414Z,5.08
2022-12-26T09:35:08.085Z,5.10
2022-12-26T09:37:40.014Z,5.12
2022-12-26T09:40:22.466Z,5.34
2022-12-26T09:43:09.769Z,5.35
2022-12-26T09:46:07.413Z,5.29
2022-12-26T09:49:25.877Z,5.39
2022-12-26T09:52:03.398Z,5.41
2022-12-26T09:54:40.775Z,5.16
2022-12-26T09:57:17.621Z,4.91
2022-12-26T09:59:57.323Z,5.39
2022-12-26T10:02:29.638Z,5.29
2022-12-26T10:05:01.888Z,5.14
2022-12-26T10:07:43.007Z,5.33
2022-12-26T10:10:50.783Z,5.39
2022-12-26T10:13:59.799Z,5.36
2022-12-26T10:17:15.092Z,5.32
2022-12-26T10:20:05.312Z,5.41
2022-12-26T10:22:52.426Z,5.51
2022-12-26T10:25:47.587Z,5.46
2022-12-26T10:28:34.627Z,5.54
2022-12-26T10:31:13.905Z,5.61
2022-12-26T10:33:59.041Z,5.69
2022-12-26T10:36:39.848Z,5.57
2022-12-26T10:39:23.392Z,5.81
2022-12-26T10:42:00.156Z,5.90
2022-12-26T10:44:32.135Z,5.86
2022-12-26T10:47:09.960Z,6.08
2022-12-26T10:49:45.416Z,6.16
2022-12-26T10:52:20.881Z,6.19
2022-12-26T10:55:28.466Z,6.34
2022-12-26T10:57:53.291Z,6.38
2022-12-26T11:00:27.738Z,6.17
2022-12-26T11:03:09.038Z,6.42
2022-12-26T11:08:56.137Z,6.51
2022-12-26T11:14:33.227Z,6.52
2022-12-26T11:17:13.095Z,6.65
2022-12-26T11:19:45.148Z,6.72
2022-12-26T11:22:29.226Z,6.83
2022-12-26T11:25:10.334Z,6.80
2022-12-26T11:27:45.325Z,6.82
2022-12-26T11:30:28.586Z,6.96
2022-12-26T11:33:17.098Z,6.85
2022-12-26T11:35:55.194Z,7.09
2022-12-26T11:38:44.568Z,7.07
2022-12-26T11:41:40.149Z,7.18
2022-12-26T11:44:20.530Z,7.23
2022-12-26T11:46:58.233Z,7.22
2022-12-26T11:49:35.107Z,7.20
2022-12-26T11:52:31.804Z,7.22
2022-12-26T11:55:22.473Z,7.38
2022-12-26T11:58:24.041Z,7.34
2022-12-26T12:01:02.083Z,7.42
2022-12-26T12:03:50.050Z,7.52
2022-12-26T12:06:56.718Z,7.58
2022-12-26T12:10:03.337Z,7.66
2022-12-26T12:12:50.604Z,7.68
2022-12-26T12:15:31.876Z,7.70
2022-12-26T12:18:20.735Z,7.74
2022-12-26T12:20:55.433Z,7.64
2022-12-26T12:24:01.864Z,7.72
2022-12-26T12:26:54.910Z,7.68
2022-12-26T12:29:47.973Z,7.60
2022-12-26T12:32:31.617Z,7.61
2022-12-26T12:35:03.499Z,7.61
2022-12-26T12:37:44.442Z,7.51
2022-12-26T12:40:22.584Z,7.59
2022-12-26T12:43:15.156Z,7.53
2022-12-26T12:46:08.934Z,7.67
2022-12-26T12:48:52.846Z,7.74
2022-12-26T12:51:48.981Z,7.83
2022-12-26T12:55:00.926Z,7.89
2022-12-26T12:58:06.526Z,8.06
2022-12-26T13:00:47.862Z,8.07
2022-12-26T13:03:30.621Z,8.13
2022-12-26T13:06:08.509Z,8.26
2022-12-26T13:08:41.910Z,8.31
2022-12-26T13:11:38.763Z,8.16
2022-12-26T13:14:22.603Z,8.08
2022-12-26T13:16:58.746Z,8.12
2022-12-26T13:19:41.357Z,8.10
2022-12-26T13:22:57.727Z,7.97
2022-12-26T13:25:37.063Z,7.89
2022-12-26T13:28:18.321Z,7.75
2022-12-26T13:30:55.177Z,7.66
2022-12-26T13:33:27.637Z,7.81
2022-12-26T13:36:02.029Z,7.67
2022-12-26T13:38:58.937Z,7.80
2022-12-26T13:41:51.282Z,7.67
2022-12-26T13:44:23.321Z,7.64
2022-12-26T13:46:58.155Z,7.64
2022-12-26T13:49:39.268Z,7.54
2022-12-26T13:52:11.161Z,7.63
2022-12-26T13:55:06.251Z,7.29
2022-12-26T13:57:45.152Z,7.63
2022-12-26T14:00:18.591Z,7.63
2022-12-26T14:03:24.472Z,7.58
2022-12-26T14:06:31.600Z,7.61
2022-12-26T14:09:29.029Z,7.60
2022-12-26T14:12:25.060Z,7.60
2022-12-26T14:15:24.417Z,7.58
2022-12-26T14:17:59.513Z,7.50
2022-12-26T14:20:43.232Z,7.36
2022-12-26T14:23:33.815Z,7.35
2022-12-26T14:26:05.739Z,7.28
2022-12-26T14:29:02.631Z,7.25
2022-12-26T14:31:57.543Z,7.14
2022-12-26T14:34:48.008Z,7.13
2022-12-26T14:37:25.519Z,7.06
2022-12-26T14:39:57.318Z,6.96
2022-12-26T14:42:48.998Z,6.83
2022-12-26T14:45:29.672Z,6.89
2022-12-26T14:48:02.515Z,6.84
2022-12-26T14:50:35.745Z,6.92
2022-12-26T14:53:28.587Z,6.96
2022-12-26T14:56:02.104Z,7.01
2022-12-26T14:58:47.020Z,7.06
2022-12-26T15:01:25.061Z,7.08
2022-12-26T15:04:19.723Z,7.10
2022-12-26T15:07:06.807Z,7.14
2022-12-26T15:09:48.811Z,7.11
2022-12-26T15:13:15.168Z,7.18
2022-12-26T15:15:47.271Z,7.17
2022-12-26T15:18:56.944Z,7.21
2022-12-26T15:21:34.863Z,7.20
2022-12-26T15:25:08.392Z,7.25
2022-12-26T15:28:09.435Z,7.27
2022-12-26T15:31:10.666Z,7.23
2022-12-26T15:33:52.172Z,7.15
2022-12-26T15:37:15.094Z,7.19
2022-12-26T15:39:56.536Z,7.28
2022-12-26T15:42:55.837Z,7.19
2022-12-26T15:45:52.545Z,7.20
2022-12-26T15:48:49.895Z,7.26
2022-12-26T15:51:38.189Z,7.24
2022-12-26T15:54:18.980Z,7.28
2022-12-26T15:56:55.564Z,7.27
2022-12-26T16:00:00.975Z,7.29
2022-12-26T16:02:38.936Z,7.27
2022-12-26T16:05:10.980Z,7.26
2022-12-26T16:07:56.037Z,7.25
2022-12-26T16:10:36.225Z,7.23
2022-12-26T16:13:13.881Z,7.31
2022-12-26T16:15:49.425Z,7.33
2022-12-26T16:18:26.707Z,7.38
2022-12-26T16:21:24.021Z,7.30
2022-12-26T16:23:57.612Z,7.32
2022-12-26T16:26:32.644Z,7.35
2022-12-26T16:29:05.609Z,7.39
2022-12-26T16:31:37.778Z,7.32
2022-12-26T16:34:29.217Z,7.33
2022-12-26T16:37:01.271Z,7.32
2022-12-26T16:39:33.216Z,7.33
2022-12-26T16:42:07.667Z,7.29
2022-12-26T16:44:43.423Z,7.37
2022-12-26T16:47:16.644Z,7.30
2022-12-26T16:49:49.003Z,7.36
2022-12-26T16:52:39.238Z,7.44
2022-12-26T16:55:29.465Z,7.35
2022-12-26T16:58:05.060Z,7.35
2022-12-26T17:00:37.200Z,7.29
2022-12-26T17:03:20.511Z,7.48
2022-12-26T17:05:52.519Z,7.34
2022-12-26T17:08:24.972Z,7.17
2022-12-26T17:10:57.448Z,7.47
2022-12-26T17:13:29.651Z,7.37
2022-12-26T17:16:05.517Z,7.28
2022-12-26T17:18:54.091Z,7.41
2022-12-26T17:21:32.154Z,7.40
2022-12-26T17:24:10.128Z,7.44
2022-12-26T17:26:43.957Z,7.47
2022-12-26T17:29:36.188Z,7.47
2022-12-26T17:32:09.129Z,7.38
2022-12-26T17:34:41.814Z,7.34
2022-12-26T17:37:22.928Z,7.44
2022-12-26T17:40:16.090Z,7.28
2022-12-26T17:42:51.327Z,7.36
2022-12-26T17:45:26.172Z,7.36
2022-12-26T17:47:59.029Z,7.40
2022-12-26T17:50:37.132Z,7.28
2022-12-26T17:53:33.856Z,7.33
2022-12-26T17:56:11.192Z,7.34
2022-12-26T17:58:44.718Z,7.23
2022-12-26T18:01:20.978Z,7.32
2022-12-26T18:03:54.136Z,7.26
2022-12-26T18:06:26.301Z,7.33
2022-12-26T18:08:58.613Z,7.15
2022-12-26T18:11:30.588Z,7.01
2022-12-26T18:14:02.520Z,7.35
2022-12-26T18:16:34.852Z,7.37
2022-12-26T18:19:06.808Z,7.21
2022-12-26T18:21:38.834Z,7.19
2022-12-26T18:24:11.045Z,7.34
2022-12-26T18:26:43.705Z,6.98
2022-12-26T18:29:15.692Z,7.00
2022-12-26T18:31:47.716Z,7.25
2022-12-26T18:34:19.878Z,7.21
2022-12-26T18:36:51.822Z,7.05
2022-12-26T18:39:23.765Z,7.25
2022-12-26T18:41:55.708Z,7.22
2022-12-26T18:44:27.683Z,7.14
2022-12-26T18:46:59.612Z,7.15
2022-12-26T18:49:31.628Z,7.19
2022-12-26T18:52:03.785Z,7.01
2022-12-26T18:54:36.822Z,7.28
2022-12-26T18:57:16.524Z,7.31
2022-12-26T18:59:48.727Z,7.23
2022-12-26T19:02:20.850Z,7.29
2022-12-26T19:04:52.796Z,7.27
2022-12-26T19:07:24.744Z,7.19
2022-12-26T19:09:58.411Z,7.34
2022-12-26T19:12:30.378Z,7.35
2022-12-26T19:15:02.597Z,7.29
2022-12-26T19:17:35.354Z,7.38
2022-12-26T19:20:10.135Z,7.34
2022-12-26T19:22:42.149Z,7.32
2022-12-26T19:25:14.552Z,7.42
2022-12-26T19:27:47.450Z,7.43
2022-12-26T19:30:20.766Z,7.32
2022-12-26T19:32:52.670Z,7.39
2022-12-26T19:35:24.803Z,7.31
2022-12-26T19:37:58.537Z,7.45
2022-12-26T19:40:30.565Z,7.40
2022-12-26T19:43:02.610Z,7.39
2022-12-26T19:45:34.628Z,7.35
2022-12-26T19:48:06.896Z,7.48
2022-12-26T19:50:38.810Z,7.52
2022-12-26T19:53:10.773Z,7.38
2022-12-26T19:55:42.750Z,7.53
2022-12-26T19:58:14.678Z,7.48
2022-12-26T20:00:47.006Z,7.53
2022-12-26T20:03:19.065Z,7.50
2022-12-26T20:05:51.073Z,7.49
2022-12-26T20:08:23.035Z,7.53
2022-12-26T20:11:00.599Z,7.34
2022-12-26T20:13:33.015Z,7.52
2022-12-26T20:16:14.530Z,7.54
2022-12-26T20:18:55.987Z,7.48
2022-12-26T20:21:27.962Z,7.18
2022-12-26T20:24:01.464Z,7.46
2022-12-26T20:26:33.455Z,7.48
2022-12-26T20:29:05.871Z,7.51
2022-12-26T20:31:39.704Z,7.43
2022-12-26T20:34:12.328Z,7.50
2022-12-26T20:36:44.400Z,7.48
2022-12-26T20:39:19.381Z,7.54
2022-12-26T20:41:51.345Z,7.44
2022-12-26T20:44:24.772Z,7.20
2022-12-26T20:46:56.697Z,7.44
2022-12-26T20:49:29.465Z,7.50
2022-12-26T20:52:01.677Z,7.48
2022-12-26T20:54:33.848Z,7.37
2022-12-26T20:57:05.765Z,7.39
2022-12-26T20:59:37.876Z,7.37
2022-12-26T21:02:13.388Z,7.38
2022-12-26T21:04:45.565Z,7.34
2022-12-26T21:07:17.454Z,7.14
2022-12-26T21:09:49.393Z,7.18
2022-12-26T21:12:21.252Z,7.21
2022-12-26T21:14:53.184Z,7.22
2022-12-26T21:17:25.067Z,7.25
2022-12-26T21:19:56.922Z,6.97
2022-12-26T21:22:28.881Z,6.82
2022-12-26T21:25:00.731Z,7.28
2022-12-26T21:27:32.661Z,7.14
2022-12-26T21:30:04.935Z,7.15
2022-12-26T21:32:37.982Z,7.21
2022-12-26T21:35:09.843Z,7.09
2022-12-26T21:37:53.973Z,7.23
2022-12-26T21:40:27.879Z,6.99
2022-12-26T21:42:59.801Z,7.05
2022-12-26T21:45:31.705Z,7.16
2022-12-26T21:48:03.849Z,7.11
2022-12-26T21:50:36.531Z,7.07
2022-12-26T21:53:08.546Z,7.09
2022-12-26T21:55:40.536Z,6.91
2022-12-26T21:58:12.451Z,6.84
2022-12-26T22:00:45.498Z,6.98
2022-12-26T22:03:36.370Z,6.90
2022-12-26T22:06:14.785Z,6.96
2022-12-26T22:08:46.774Z,6.70
2022-12-26T22:11:37.876Z,6.76
2022-12-26T22:14:10.127Z,6.85
2022-12-26T22:16:42.135Z,6.82
2022-12-26T22:19:14.073Z,6.68
2022-12-26T22:21:46.093Z,6.65
2022-12-26T22:24:18.040Z,6.72
2022-12-26T22:26:50.220Z,6.75
2022-12-26T22:29:22.081Z,6.56
2022-12-26T22:31:58.632Z,6.55
2022-12-26T22:34:30.591Z,6.48
2022-12-26T22:37:02.467Z,6.32
2022-12-26T22:39:34.419Z,6.10
2022-12-26T22:42:06.416Z,6.30
2022-12-26T22:44:38.414Z,6.21
2022-12-26T22:47:10.373Z,6.28
2022-12-26T22:49:42.311Z,6.19
2022-12-26T22:52:16.122Z,6.17
2022-12-26T22:54:48.172Z,6.21
2022-12-26T22:57:20.649Z,6.07
2022-12-26T23:00:09.757Z,5.97
2022-12-26T23:02:42.520Z,5.95
2022-12-26T23:05:14.892Z,6.06
2022-12-26T23:07:47.473Z,6.09
2022-12-26T23:10:23.506Z,6.06
2022-12-26T23:12:56.167Z,5.92
2022-12-26T23:15:29.183Z,5.99
2022-12-26T23:18:40.367Z,5.96
2022-12-26T23:21:42.644Z,5.93
2022-12-26T23:24:17.834Z,5.96
2022-12-26T23:26:52.773Z,6.01
2022-12-26T23:29:43.408Z,6.07
2022-12-26T23:32:15.377Z,5.93
2022-12-26T23:34:47.325Z,5.95
2022-12-26T23:37:19.832Z,6.10
2022-12-26T23:39:51.771Z,5.98
2022-12-26T23:42:23.616Z,5.86
2022-12-26T23:44:55.476Z,6.02
2022-12-26T23:47:27.690Z,6.08
2022-12-26T23:49:59.516Z,6.15
2022-12-26T23:52:31.738Z,6.10
2022-12-26T23:55:04.302Z,6.15
2022-12-26T23:57:36.198Z,6.06
